sensor_id;sensor_type;location;lat;lon;timestamp;temperature;humidity
11704;DHT22;5908;51.354;7.458;2023-10-13T00:01:02;19.10;99.90
11704;DHT22;5908;51.354;7.458;2023-10-13T00:03:32;19.00;99.90
11704;DHT22;5908;51.354;7.458;2023-10-13T00:05:59;19.10;99.90
11704;DHT22;5908;51.354;7.458;2023-10-13T00:08:28;19.00;99.90
11704;DHT22;5908;51.354;7.458;2023-10-13T00:10:55;19.00;99.90
11704;DHT22;5908;51.354;7.458;2023-10-13T00:13:27;19.10;99.90
11704;DHT22;5908;51.354;7.458;2023-10-13T00:15:55;19.10;99.90
11704;DHT22;5908;51.354;7.458;2023-10-13T00:18:24;19.10;99.90
11704;DHT22;5908;51.354;7.458;2023-10-13T00:20:52;19.10;99.90
11704;DHT22;5908;51.354;7.458;2023-10-13T00:23:22;19.10;99.90
11704;DHT22;5908;51.354;7.458;2023-10-13T00:25:49;19.10;99.90
11704;DHT22;5908;51.354;7.458;2023-10-13T00:28:22;19.10;99.90
11704;DHT22;5908;51.354;7.458;2023-10-13T00:30:51;19.20;99.90
11704;DHT22;5908;51.354;7.458;2023-10-13T00:33:24;19.10;99.90
11704;DHT22;5908;51.354;7.458;2023-10-13T00:35:51;19.10;99.90
11704;DHT22;5908;51.354;7.458;2023-10-13T00:38:18;19.10;99.90
11704;DHT22;5908;51.354;7.458;2023-10-13T00:40:46;19.20;99.90
11704;DHT22;5908;51.354;7.458;2023-10-13T00:43:18;19.20;99.90
11704;DHT22;5908;51.354;7.458;2023-10-13T00:46:05;19.20;99.90
11704;DHT22;5908;51.354;7.458;2023-10-13T00:48:35;19.20;99.90
11704;DHT22;5908;51.354;7.458;2023-10-13T00:51:08;19.20;99.90
11704;DHT22;5908;51.354;7.458;2023-10-13T00:53:43;19.10;99.90
11704;DHT22;5908;51.354;7.458;2023-10-13T00:56:12;19.10;99.90
11704;DHT22;5908;51.354;7.458;2023-10-13T00:58:45;19.10;99.90
11704;DHT22;5908;51.354;7.458;2023-10-13T01:01:16;19.00;99.90
11704;DHT22;5908;51.354;7.458;2023-10-13T01:03:49;19.00;99.90
11704;DHT22;5908;51.354;7.458;2023-10-13T01:06:16;19.00;99.90
11704;DHT22;5908;51.354;7.458;2023-10-13T01:08:46;19.00;99.90
11704;DHT22;5908;51.354;7.458;2023-10-13T01:11:17;19.10;99.90
11704;DHT22;5908;51.354;7.458;2023-10-13T01:13:44;19.10;99.90
11704;DHT22;5908;51.354;7.458;2023-10-13T01:16:12;19.10;99.90
11704;DHT22;5908;51.354;7.458;2023-10-13T01:18:41;19.10;99.90
11704;DHT22;5908;51.354;7.458;2023-10-13T01:21:16;19.10;99.90
11704;DHT22;5908;51.354;7.458;2023-10-13T01:23:47;19.10;99.90
11704;DHT22;5908;51.354;7.458;2023-10-13T01:26:13;19.20;99.90
11704;DHT22;5908;51.354;7.458;2023-10-13T01:28:47;19.20;99.90
11704;DHT22;5908;51.354;7.458;2023-10-13T01:31:15;19.20;99.90
11704;DHT22;5908;51.354;7.458;2023-10-13T01:33:50;19.20;99.90
11704;DHT22;5908;51.354;7.458;2023-10-13T01:36:22;19.20;99.90
11704;DHT22;5908;51.354;7.458;2023-10-13T01:38:49;19.20;99.90
11704;DHT22;5908;51.354;7.458;2023-10-13T01:41:18;19.30;99.90
11704;DHT22;5908;51.354;7.458;2023-10-13T01:43:43;19.30;99.90
11704;DHT22;5908;51.354;7.458;2023-10-13T01:46:10;19.30;99.90
11704;DHT22;5908;51.354;7.458;2023-10-13T01:48:39;19.30;99.90
11704;DHT22;5908;51.354;7.458;2023-10-13T01:51:07;19.30;99.90
11704;DHT22;5908;51.354;7.458;2023-10-13T01:53:36;19.30;99.90
11704;DHT22;5908;51.354;7.458;2023-10-13T01:56:05;19.30;99.90
11704;DHT22;5908;51.354;7.458;2023-10-13T01:58:36;19.20;99.90
11704;DHT22;5908;51.354;7.458;2023-10-13T02:01:07;19.20;99.90
11704;DHT22;5908;51.354;7.458;2023-10-13T02:03:33;19.10;99.90
11704;DHT22;5908;51.354;7.458;2023-10-13T02:06:02;19.10;99.90
11704;DHT22;5908;51.354;7.458;2023-10-13T02:08:30;19.10;99.90
11704;DHT22;5908;51.354;7.458;2023-10-13T02:10:58;19.20;99.90
11704;DHT22;5908;51.354;7.458;2023-10-13T02:13:26;19.30;99.90
11704;DHT22;5908;51.354;7.458;2023-10-13T02:15:55;19.30;99.90
11704;DHT22;5908;51.354;7.458;2023-10-13T02:18:23;19.30;99.90
11704;DHT22;5908;51.354;7.458;2023-10-13T02:20:52;19.30;99.90
11704;DHT22;5908;51.354;7.458;2023-10-13T02:23:22;19.30;99.90
11704;DHT22;5908;51.354;7.458;2023-10-13T02:25:50;19.30;99.90
11704;DHT22;5908;51.354;7.458;2023-10-13T02:28:27;19.30;99.90
11704;DHT22;5908;51.354;7.458;2023-10-13T02:31:02;19.40;99.90
11704;DHT22;5908;51.354;7.458;2023-10-13T02:33:28;19.40;99.90
11704;DHT22;5908;51.354;7.458;2023-10-13T02:35:56;19.40;99.90
11704;DHT22;5908;51.354;7.458;2023-10-13T02:38:23;19.40;99.90
11704;DHT22;5908;51.354;7.458;2023-10-13T02:41:12;19.30;99.90
11704;DHT22;5908;51.354;7.458;2023-10-13T02:43:46;19.30;99.90
11704;DHT22;5908;51.354;7.458;2023-10-13T02:46:12;19.30;99.90
11704;DHT22;5908;51.354;7.458;2023-10-13T02:48:41;19.30;99.90
11704;DHT22;5908;51.354;7.458;2023-10-13T02:51:08;19.30;99.90
11704;DHT22;5908;51.354;7.458;2023-10-13T02:53:42;19.30;99.90
11704;DHT22;5908;51.354;7.458;2023-10-13T02:56:12;19.30;99.90
11704;DHT22;5908;51.354;7.458;2023-10-13T02:58:40;19.40;99.90
11704;DHT22;5908;51.354;7.458;2023-10-13T03:01:10;19.40;99.90
11704;DHT22;5908;51.354;7.458;2023-10-13T03:03:48;19.40;99.90
11704;DHT22;5908;51.354;7.458;2023-10-13T03:06:17;19.40;99.90
11704;DHT22;5908;51.354;7.458;2023-10-13T03:08:48;19.40;99.90
11704;DHT22;5908;51.354;7.458;2023-10-13T03:11:13;19.40;99.90
11704;DHT22;5908;51.354;7.458;2023-10-13T03:13:47;19.50;99.90
11704;DHT22;5908;51.354;7.458;2023-10-13T03:16:17;19.50;99.90
11704;DHT22;5908;51.354;7.458;2023-10-13T03:18:46;19.40;99.90
11704;DHT22;5908;51.354;7.458;2023-10-13T03:21:20;19.40;99.90
11704;DHT22;5908;51.354;7.458;2023-10-13T03:23:56;19.40;99.90
11704;DHT22;5908;51.354;7.458;2023-10-13T03:26:22;19.30;99.90
11704;DHT22;5908;51.354;7.458;2023-10-13T03:28:49;19.30;99.90
11704;DHT22;5908;51.354;7.458;2023-10-13T03:31:19;19.20;99.90
11704;DHT22;5908;51.354;7.458;2023-10-13T03:33:53;19.20;99.90
11704;DHT22;5908;51.354;7.458;2023-10-13T03:36:25;19.10;99.90
11704;DHT22;5908;51.354;7.458;2023-10-13T03:39:22;19.10;99.90
11704;DHT22;5908;51.354;7.458;2023-10-13T03:41:55;19.00;99.90
11704;DHT22;5908;51.354;7.458;2023-10-13T03:44:22;19.00;99.90
11704;DHT22;5908;51.354;7.458;2023-10-13T03:46:50;18.90;99.90
11704;DHT22;5908;51.354;7.458;2023-10-13T03:49:19;18.90;99.90
11704;DHT22;5908;51.354;7.458;2023-10-13T03:54:15;18.90;99.90
11704;DHT22;5908;51.354;7.458;2023-10-13T03:56:43;18.90;99.90
11704;DHT22;5908;51.354;7.458;2023-10-13T03:59:11;18.90;99.90
11704;DHT22;5908;51.354;7.458;2023-10-13T04:01:44;18.90;99.90
11704;DHT22;5908;51.354;7.458;2023-10-13T04:04:15;18.90;99.90
11704;DHT22;5908;51.354;7.458;2023-10-13T04:06:59;18.90;99.90
11704;DHT22;5908;51.354;7.458;2023-10-13T04:09:39;18.90;99.90
11704;DHT22;5908;51.354;7.458;2023-10-13T04:12:35;18.90;99.90
11704;DHT22;5908;51.354;7.458;2023-10-13T04:15:19;18.90;99.90
11704;DHT22;5908;51.354;7.458;2023-10-13T04:17:49;18.90;99.90
11704;DHT22;5908;51.354;7.458;2023-10-13T04:20:17;19.00;99.90
11704;DHT22;5908;51.354;7.458;2023-10-13T04:22:58;19.00;99.90
11704;DHT22;5908;51.354;7.458;2023-10-13T04:25:50;19.00;99.90
11704;DHT22;5908;51.354;7.458;2023-10-13T04:28:47;18.90;99.90
11704;DHT22;5908;51.354;7.458;2023-10-13T04:31:18;18.90;99.90
11704;DHT22;5908;51.354;7.458;2023-10-13T04:34:11;19.00;99.90
11704;DHT22;5908;51.354;7.458;2023-10-13T04:36:46;19.00;99.90
11704;DHT22;5908;51.354;7.458;2023-10-13T04:39:21;19.00;99.90
11704;DHT22;5908;51.354;7.458;2023-10-13T04:41:54;19.00;99.90
11704;DHT22;5908;51.354;7.458;2023-10-13T04:44:36;19.00;99.90
11704;DHT22;5908;51.354;7.458;2023-10-13T04:47:14;19.10;99.90
11704;DHT22;5908;51.354;7.458;2023-10-13T04:49:48;19.10;99.90
11704;DHT22;5908;51.354;7.458;2023-10-13T04:52:25;19.00;99.90
11704;DHT22;5908;51.354;7.458;2023-10-13T04:55:09;19.00;99.90
11704;DHT22;5908;51.354;7.458;2023-10-13T04:57:42;19.10;99.90
11704;DHT22;5908;51.354;7.458;2023-10-13T05:00:13;19.10;99.90
11704;DHT22;5908;51.354;7.458;2023-10-13T05:03:06;19.00;99.90
11704;DHT22;5908;51.354;7.458;2023-10-13T05:05:56;19.00;99.90
11704;DHT22;5908;51.354;7.458;2023-10-13T05:09:01;19.10;99.90
11704;DHT22;5908;51.354;7.458;2023-10-13T05:11:45;19.10;99.90
11704;DHT22;5908;51.354;7.458;2023-10-13T05:14:29;19.10;99.90
11704;DHT22;5908;51.354;7.458;2023-10-13T05:17:13;19.10;99.90
11704;DHT22;5908;51.354;7.458;2023-10-13T05:19:58;19.10;99.90
11704;DHT22;5908;51.354;7.458;2023-10-13T05:22:42;19.10;99.90
11704;DHT22;5908;51.354;7.458;2023-10-13T05:25:27;19.10;99.90
11704;DHT22;5908;51.354;7.458;2023-10-13T05:28:12;19.10;99.90
11704;DHT22;5908;51.354;7.458;2023-10-13T05:30:58;19.20;99.90
11704;DHT22;5908;51.354;7.458;2023-10-13T05:33:43;19.10;99.90
11704;DHT22;5908;51.354;7.458;2023-10-13T05:36:27;19.20;99.90
11704;DHT22;5908;51.354;7.458;2023-10-13T05:39:11;19.20;99.90
11704;DHT22;5908;51.354;7.458;2023-10-13T05:41:57;19.30;99.90
11704;DHT22;5908;51.354;7.458;2023-10-13T05:44:41;19.30;99.90
11704;DHT22;5908;51.354;7.458;2023-10-13T05:47:22;19.30;99.90
11704;DHT22;5908;51.354;7.458;2023-10-13T05:50:06;19.20;99.90
11704;DHT22;5908;51.354;7.458;2023-10-13T05:52:54;19.20;99.90
11704;DHT22;5908;51.354;7.458;2023-10-13T05:55:38;19.10;99.90
11704;DHT22;5908;51.354;7.458;2023-10-13T05:58:23;19.10;99.90
11704;DHT22;5908;51.354;7.458;2023-10-13T06:01:12;19.00;99.90
11704;DHT22;5908;51.354;7.458;2023-10-13T06:03:56;19.00;99.90
11704;DHT22;5908;51.354;7.458;2023-10-13T06:09:25;18.80;99.90
11704;DHT22;5908;51.354;7.458;2023-10-13T06:12:09;18.80;99.90
11704;DHT22;5908;51.354;7.458;2023-10-13T06:14:54;18.80;99.90
11704;DHT22;5908;51.354;7.458;2023-10-13T06:17:39;18.70;99.90
11704;DHT22;5908;51.354;7.458;2023-10-13T06:20:23;18.70;99.90
11704;DHT22;5908;51.354;7.458;2023-10-13T06:23:07;18.70;99.90
11704;DHT22;5908;51.354;7.458;2023-10-13T06:25:51;18.70;99.90
11704;DHT22;5908;51.354;7.458;2023-10-13T06:28:36;18.70;99.90
11704;DHT22;5908;51.354;7.458;2023-10-13T06:31:13;18.70;99.90
11704;DHT22;5908;51.354;7.458;2023-10-13T06:33:47;18.90;99.90
11704;DHT22;5908;51.354;7.458;2023-10-13T06:36:14;18.80;99.90
11704;DHT22;5908;51.354;7.458;2023-10-13T06:38:43;18.90;99.90
11704;DHT22;5908;51.354;7.458;2023-10-13T06:41:10;18.90;99.90
11704;DHT22;5908;51.354;7.458;2023-10-13T06:43:45;18.90;99.90
11704;DHT22;5908;51.354;7.458;2023-10-13T06:46:26;19.00;99.90
11704;DHT22;5908;51.354;7.458;2023-10-13T06:48:54;18.80;99.90
11704;DHT22;5908;51.354;7.458;2023-10-13T06:51:24;18.90;99.90
11704;DHT22;5908;51.354;7.458;2023-10-13T06:53:56;19.00;99.90
11704;DHT22;5908;51.354;7.458;2023-10-13T06:56:23;18.90;99.90
11704;DHT22;5908;51.354;7.458;2023-10-13T06:58:53;18.90;99.90
11704;DHT22;5908;51.354;7.458;2023-10-13T07:01:28;19.00;99.90
11704;DHT22;5908;51.354;7.458;2023-10-13T07:03:55;19.10;99.90
11704;DHT22;5908;51.354;7.458;2023-10-13T07:06:26;19.10;99.90
11704;DHT22;5908;51.354;7.458;2023-10-13T07:08:53;19.10;99.90
11704;DHT22;5908;51.354;7.458;2023-10-13T07:11:24;19.20;99.90
11704;DHT22;5908;51.354;7.458;2023-10-13T07:14:00;19.40;99.90
11704;DHT22;5908;51.354;7.458;2023-10-13T07:16:42;19.50;99.90
11704;DHT22;5908;51.354;7.458;2023-10-13T07:19:12;19.60;99.90
11704;DHT22;5908;51.354;7.458;2023-10-13T07:21:43;19.80;99.90
11704;DHT22;5908;51.354;7.458;2023-10-13T07:24:11;19.50;99.90
11704;DHT22;5908;51.354;7.458;2023-10-13T07:26:37;19.30;99.90
11704;DHT22;5908;51.354;7.458;2023-10-13T07:29:08;19.30;99.90
11704;DHT22;5908;51.354;7.458;2023-10-13T07:31:36;19.30;99.90
11704;DHT22;5908;51.354;7.458;2023-10-13T07:34:06;19.40;99.90
11704;DHT22;5908;51.354;7.458;2023-10-13T07:36:38;19.50;99.90
11704;DHT22;5908;51.354;7.458;2023-10-13T07:39:05;19.60;99.90
11704;DHT22;5908;51.354;7.458;2023-10-13T07:41:46;19.60;99.90
11704;DHT22;5908;51.354;7.458;2023-10-13T07:44:17;19.60;99.90
11704;DHT22;5908;51.354;7.458;2023-10-13T07:46:46;19.60;99.90
11704;DHT22;5908;51.354;7.458;2023-10-13T07:49:25;19.70;99.90
11704;DHT22;5908;51.354;7.458;2023-10-13T07:51:56;19.80;99.90
11704;DHT22;5908;51.354;7.458;2023-10-13T07:54:26;19.80;99.90
11704;DHT22;5908;51.354;7.458;2023-10-13T07:56:52;19.70;99.90
11704;DHT22;5908;51.354;7.458;2023-10-13T07:59:20;19.80;99.90
11704;DHT22;5908;51.354;7.458;2023-10-13T08:01:49;19.90;99.90
11704;DHT22;5908;51.354;7.458;2023-10-13T08:04:36;19.90;99.90
11704;DHT22;5908;51.354;7.458;2023-10-13T08:07:02;19.80;99.90
11704;DHT22;5908;51.354;7.458;2023-10-13T08:09:38;19.80;99.90
11704;DHT22;5908;51.354;7.458;2023-10-13T08:12:06;19.80;99.90
11704;DHT22;5908;51.354;7.458;2023-10-13T08:14:37;19.90;99.90
11704;DHT22;5908;51.354;7.458;2023-10-13T08:17:07;19.90;99.90
11704;DHT22;5908;51.354;7.458;2023-10-13T08:19:35;19.90;99.90
11704;DHT22;5908;51.354;7.458;2023-10-13T08:22:10;19.90;99.90
11704;DHT22;5908;51.354;7.458;2023-10-13T08:25:01;19.80;99.90
11704;DHT22;5908;51.354;7.458;2023-10-13T08:27:45;19.80;99.90
11704;DHT22;5908;51.354;7.458;2023-10-13T08:30:35;19.80;99.90
11704;DHT22;5908;51.354;7.458;2023-10-13T08:33:18;19.70;99.90
11704;DHT22;5908;51.354;7.458;2023-10-13T08:35:50;19.70;99.90
11704;DHT22;5908;51.354;7.458;2023-10-13T08:38:43;19.60;99.90
11704;DHT22;5908;51.354;7.458;2023-10-13T08:41:17;19.70;99.90
11704;DHT22;5908;51.354;7.458;2023-10-13T08:44:02;19.70;99.90
11704;DHT22;5908;51.354;7.458;2023-10-13T08:46:34;19.70;99.90
11704;DHT22;5908;51.354;7.458;2023-10-13T08:49:35;19.80;99.90
11704;DHT22;5908;51.354;7.458;2023-10-13T08:52:11;19.90;99.90
11704;DHT22;5908;51.354;7.458;2023-10-13T08:54:58;20.00;99.90
11704;DHT22;5908;51.354;7.458;2023-10-13T08:58:00;20.10;99.90
11704;DHT22;5908;51.354;7.458;2023-10-13T09:00:38;20.20;99.90
11704;DHT22;5908;51.354;7.458;2023-10-13T09:03:19;20.30;99.90
11704;DHT22;5908;51.354;7.458;2023-10-13T09:06:05;20.50;99.90
11704;DHT22;5908;51.354;7.458;2023-10-13T09:08:32;20.60;99.90
11704;DHT22;5908;51.354;7.458;2023-10-13T09:11:10;20.70;99.90
11704;DHT22;5908;51.354;7.458;2023-10-13T09:13:39;20.80;99.90
11704;DHT22;5908;51.354;7.458;2023-10-13T09:16:12;20.90;99.90
11704;DHT22;5908;51.354;7.458;2023-10-13T09:18:42;21.00;99.90
11704;DHT22;5908;51.354;7.458;2023-10-13T09:21:14;21.10;99.90
11704;DHT22;5908;51.354;7.458;2023-10-13T09:24:09;21.20;99.90
11704;DHT22;5908;51.354;7.458;2023-10-13T09:26:52;21.30;99.90
11704;DHT22;5908;51.354;7.458;2023-10-13T09:29:21;21.30;99.90
11704;DHT22;5908;51.354;7.458;2023-10-13T09:31:59;21.30;99.90
11704;DHT22;5908;51.354;7.458;2023-10-13T09:34:25;21.40;99.90
11704;DHT22;5908;51.354;7.458;2023-10-13T09:36:58;21.40;99.90
11704;DHT22;5908;51.354;7.458;2023-10-13T09:39:28;21.50;99.90
11704;DHT22;5908;51.354;7.458;2023-10-13T09:42:01;21.50;99.90
11704;DHT22;5908;51.354;7.458;2023-10-13T09:44:29;21.50;99.90
11704;DHT22;5908;51.354;7.458;2023-10-13T09:47:01;21.50;99.90
11704;DHT22;5908;51.354;7.458;2023-10-13T09:49:38;21.50;99.90
11704;DHT22;5908;51.354;7.458;2023-10-13T09:52:14;21.50;99.90
11704;DHT22;5908;51.354;7.458;2023-10-13T09:54:51;21.50;99.90
11704;DHT22;5908;51.354;7.458;2023-10-13T09:57:27;21.50;99.90
11704;DHT22;5908;51.354;7.458;2023-10-13T10:00:06;21.50;99.90
11704;DHT22;5908;51.354;7.458;2023-10-13T10:02:34;21.60;99.90
11704;DHT22;5908;51.354;7.458;2023-10-13T10:05:08;21.60;99.90
11704;DHT22;5908;51.354;7.458;2023-10-13T10:07:39;21.60;99.90
11704;DHT22;5908;51.354;7.458;2023-10-13T10:10:09;21.70;99.90
11704;DHT22;5908;51.354;7.458;2023-10-13T10:12:41;21.80;99.90
11704;DHT22;5908;51.354;7.458;2023-10-13T10:15:20;21.80;99.90
11704;DHT22;5908;51.354;7.458;2023-10-13T10:17:56;21.90;99.90
11704;DHT22;5908;51.354;7.458;2023-10-13T10:20:28;22.00;99.90
11704;DHT22;5908;51.354;7.458;2023-10-13T10:23:06;22.10;99.90
11704;DHT22;5908;51.354;7.458;2023-10-13T10:25:38;22.10;99.70
11704;DHT22;5908;51.354;7.458;2023-10-13T10:28:10;22.20;98.50
11704;DHT22;5908;51.354;7.458;2023-10-13T10:30:42;22.20;98.00
11704;DHT22;5908;51.354;7.458;2023-10-13T10:33:10;22.40;98.10
11704;DHT22;5908;51.354;7.458;2023-10-13T10:35:40;22.50;97.70
11704;DHT22;5908;51.354;7.458;2023-10-13T10:38:10;22.70;97.40
11704;DHT22;5908;51.354;7.458;2023-10-13T10:40:53;22.80;96.80
11704;DHT22;5908;51.354;7.458;2023-10-13T10:43:25;22.90;96.20
11704;DHT22;5908;51.354;7.458;2023-10-13T10:45:53;23.00;95.90
11704;DHT22;5908;51.354;7.458;2023-10-13T10:48:25;23.00;96.30
11704;DHT22;5908;51.354;7.458;2023-10-13T10:50:57;23.20;96.10
11704;DHT22;5908;51.354;7.458;2023-10-13T10:53:34;23.20;95.50
11704;DHT22;5908;51.354;7.458;2023-10-13T10:56:09;24.00;94.20
11704;DHT22;5908;51.354;7.458;2023-10-13T10:58:46;23.80;94.20
11704;DHT22;5908;51.354;7.458;2023-10-13T11:01:13;23.60;94.30
11704;DHT22;5908;51.354;7.458;2023-10-13T11:03:53;23.60;94.40
11704;DHT22;5908;51.354;7.458;2023-10-13T11:06:23;23.60;93.90
11704;DHT22;5908;51.354;7.458;2023-10-13T11:09:03;23.50;93.80
11704;DHT22;5908;51.354;7.458;2023-10-13T11:11:33;23.60;93.60
11704;DHT22;5908;51.354;7.458;2023-10-13T11:14:01;23.50;93.90
11704;DHT22;5908;51.354;7.458;2023-10-13T11:16:46;23.50;93.40
11704;DHT22;5908;51.354;7.458;2023-10-13T11:19:16;23.50;93.60
11704;DHT22;5908;51.354;7.458;2023-10-13T11:21:46;23.50;93.30
11704;DHT22;5908;51.354;7.458;2023-10-13T11:24:14;23.60;93.50
11704;DHT22;5908;51.354;7.458;2023-10-13T11:26:43;23.60;93.10
11704;DHT22;5908;51.354;7.458;2023-10-13T11:29:15;23.70;93.40
11704;DHT22;5908;51.354;7.458;2023-10-13T11:31:44;23.70;93.20
11704;DHT22;5908;51.354;7.458;2023-10-13T11:34:12;23.90;92.90
11704;DHT22;5908;51.354;7.458;2023-10-13T11:36:42;24.00;92.70
11704;DHT22;5908;51.354;7.458;2023-10-13T11:39:08;24.10;92.50
11704;DHT22;5908;51.354;7.458;2023-10-13T11:41:44;24.20;92.30
11704;DHT22;5908;51.354;7.458;2023-10-13T11:44:20;24.30;92.20
11704;DHT22;5908;51.354;7.458;2023-10-13T11:47:08;24.40;92.10
11704;DHT22;5908;51.354;7.458;2023-10-13T11:49:58;24.40;92.00
11704;DHT22;5908;51.354;7.458;2023-10-13T11:52:25;24.50;92.40
11704;DHT22;5908;51.354;7.458;2023-10-13T11:54:54;24.50;92.10
11704;DHT22;5908;51.354;7.458;2023-10-13T11:57:22;24.60;91.70
11704;DHT22;5908;51.354;7.458;2023-10-13T11:59:50;24.70;91.10
11704;DHT22;5908;51.354;7.458;2023-10-13T12:02:21;24.70;91.40
11704;DHT22;5908;51.354;7.458;2023-10-13T12:05:06;24.50;91.70
11704;DHT22;5908;51.354;7.458;2023-10-13T12:07:42;24.20;92.30
11704;DHT22;5908;51.354;7.458;2023-10-13T12:10:13;24.00;92.60
11704;DHT22;5908;51.354;7.458;2023-10-13T12:13:00;23.90;92.70
11704;DHT22;5908;51.354;7.458;2023-10-13T12:15:32;23.90;92.80
11704;DHT22;5908;51.354;7.458;2023-10-13T12:18:14;23.80;93.10
11704;DHT22;5908;51.354;7.458;2023-10-13T12:20:41;23.60;93.40
11704;DHT22;5908;51.354;7.458;2023-10-13T12:23:11;23.50;93.50
11704;DHT22;5908;51.354;7.458;2023-10-13T12:25:43;23.90;93.20
11704;DHT22;5908;51.354;7.458;2023-10-13T12:28:26;23.50;93.20
11704;DHT22;5908;51.354;7.458;2023-10-13T12:31:02;23.40;93.70
11704;DHT22;5908;51.354;7.458;2023-10-13T12:33:32;23.60;93.10
11704;DHT22;5908;51.354;7.458;2023-10-13T12:36:03;23.40;93.50
11704;DHT22;5908;51.354;7.458;2023-10-13T12:38:32;23.20;93.80
11704;DHT22;5908;51.354;7.458;2023-10-13T12:41:37;23.20;94.10
11704;DHT22;5908;51.354;7.458;2023-10-13T12:44:24;23.20;94.20
11704;DHT22;5908;51.354;7.458;2023-10-13T12:47:08;23.30;93.60
11704;DHT22;5908;51.354;7.458;2023-10-13T12:49:52;23.30;93.70
11704;DHT22;5908;51.354;7.458;2023-10-13T12:52:24;23.40;93.60
11704;DHT22;5908;51.354;7.458;2023-10-13T12:54:57;23.30;93.20
11704;DHT22;5908;51.354;7.458;2023-10-13T12:57:40;23.50;93.40
11704;DHT22;5908;51.354;7.458;2023-10-13T13:00:12;23.50;93.10
11704;DHT22;5908;51.354;7.458;2023-10-13T13:02:49;23.50;92.90
11704;DHT22;5908;51.354;7.458;2023-10-13T13:05:17;23.60;92.70
11704;DHT22;5908;51.354;7.458;2023-10-13T13:07:48;23.70;92.70
11704;DHT22;5908;51.354;7.458;2023-10-13T13:10:18;23.70;91.90
11704;DHT22;5908;51.354;7.458;2023-10-13T13:12:44;23.90;91.90
11704;DHT22;5908;51.354;7.458;2023-10-13T13:15:12;24.00;91.70
11704;DHT22;5908;51.354;7.458;2023-10-13T13:17:40;24.00;90.70
11704;DHT22;5908;51.354;7.458;2023-10-13T13:20:07;24.00;90.60
11704;DHT22;5908;51.354;7.458;2023-10-13T13:22:50;24.10;90.80
11704;DHT22;5908;51.354;7.458;2023-10-13T13:25:19;24.20;90.50
11704;DHT22;5908;51.354;7.458;2023-10-13T13:27:50;24.30;90.40
11704;DHT22;5908;51.354;7.458;2023-10-13T13:30:18;24.40;89.60
11704;DHT22;5908;51.354;7.458;2023-10-13T13:32:47;24.40;89.20
11704;DHT22;5908;51.354;7.458;2023-10-13T13:35:13;24.40;89.30
11704;DHT22;5908;51.354;7.458;2023-10-13T13:37:43;24.40;89.50
11704;DHT22;5908;51.354;7.458;2023-10-13T13:40:10;24.40;89.50
11704;DHT22;5908;51.354;7.458;2023-10-13T13:42:40;24.40;89.00
11704;DHT22;5908;51.354;7.458;2023-10-13T13:45:14;24.30;87.90
11704;DHT22;5908;51.354;7.458;2023-10-13T13:47:57;24.40;88.40
11704;DHT22;5908;51.354;7.458;2023-10-13T13:50:25;24.40;88.20
11704;DHT22;5908;51.354;7.458;2023-10-13T13:52:52;24.40;87.30
11704;DHT22;5908;51.354;7.458;2023-10-13T13:55:21;24.30;88.20
11704;DHT22;5908;51.354;7.458;2023-10-13T13:57:48;24.30;88.10
11704;DHT22;5908;51.354;7.458;2023-10-13T14:00:16;24.10;87.20
11704;DHT22;5908;51.354;7.458;2023-10-13T14:02:48;24.20;87.30
11704;DHT22;5908;51.354;7.458;2023-10-13T14:05:16;24.10;87.10
11704;DHT22;5908;51.354;7.458;2023-10-13T14:07:43;24.10;87.60
11704;DHT22;5908;51.354;7.458;2023-10-13T14:10:15;24.10;87.30
11704;DHT22;5908;51.354;7.458;2023-10-13T14:12:57;24.10;87.10
11704;DHT22;5908;51.354;7.458;2023-10-13T14:15:34;24.10;87.50
11704;DHT22;5908;51.354;7.458;2023-10-13T14:18:09;24.10;87.50
11704;DHT22;5908;51.354;7.458;2023-10-13T14:20:41;24.00;87.20
11704;DHT22;5908;51.354;7.458;2023-10-13T14:23:08;24.00;86.60
11704;DHT22;5908;51.354;7.458;2023-10-13T14:25:37;24.10;86.20
11704;DHT22;5908;51.354;7.458;2023-10-13T14:28:04;24.10;86.20
11704;DHT22;5908;51.354;7.458;2023-10-13T14:30:31;24.10;86.80
11704;DHT22;5908;51.354;7.458;2023-10-13T14:32:58;24.00;85.60
11704;DHT22;5908;51.354;7.458;2023-10-13T14:35:24;24.00;86.10
11704;DHT22;5908;51.354;7.458;2023-10-13T14:37:53;23.90;85.70
11704;DHT22;5908;51.354;7.458;2023-10-13T14:40:19;23.80;86.10
11704;DHT22;5908;51.354;7.458;2023-10-13T14:42:47;23.80;85.90
11704;DHT22;5908;51.354;7.458;2023-10-13T14:45:14;23.80;85.60
11704;DHT22;5908;51.354;7.458;2023-10-13T14:47:41;23.80;85.80
11704;DHT22;5908;51.354;7.458;2023-10-13T14:50:08;23.80;85.70
11704;DHT22;5908;51.354;7.458;2023-10-13T14:52:39;23.70;85.50
11704;DHT22;5908;51.354;7.458;2023-10-13T14:55:10;23.70;85.90
11704;DHT22;5908;51.354;7.458;2023-10-13T14:57:44;23.60;86.10
11704;DHT22;5908;51.354;7.458;2023-10-13T15:00:11;23.50;86.80
11704;DHT22;5908;51.354;7.458;2023-10-13T15:02:39;23.50;87.50
11704;DHT22;5908;51.354;7.458;2023-10-13T15:05:08;23.50;87.80
11704;DHT22;5908;51.354;7.458;2023-10-13T15:10:12;23.40;87.90
11704;DHT22;5908;51.354;7.458;2023-10-13T15:12:40;23.30;89.20
11704;DHT22;5908;51.354;7.458;2023-10-13T15:15:08;23.30;89.30
11704;DHT22;5908;51.354;7.458;2023-10-13T15:17:38;23.30;89.30
11704;DHT22;5908;51.354;7.458;2023-10-13T15:20:06;23.30;89.00
11704;DHT22;5908;51.354;7.458;2023-10-13T15:22:34;23.30;89.00
11704;DHT22;5908;51.354;7.458;2023-10-13T15:25:01;23.30;89.10
11704;DHT22;5908;51.354;7.458;2023-10-13T15:27:35;23.30;89.00
11704;DHT22;5908;51.354;7.458;2023-10-13T15:30:07;23.20;89.30
11704;DHT22;5908;51.354;7.458;2023-10-13T15:32:45;23.20;88.90
11704;DHT22;5908;51.354;7.458;2023-10-13T15:35:13;23.20;88.70
11704;DHT22;5908;51.354;7.458;2023-10-13T15:37:41;23.10;88.60
11704;DHT22;5908;51.354;7.458;2023-10-13T15:40:12;23.10;89.00
11704;DHT22;5908;51.354;7.458;2023-10-13T15:42:42;23.00;89.00
11704;DHT22;5908;51.354;7.458;2023-10-13T15:45:10;23.00;89.00
11704;DHT22;5908;51.354;7.458;2023-10-13T15:47:43;23.00;88.90
11704;DHT22;5908;51.354;7.458;2023-10-13T15:50:11;22.90;89.80
11704;DHT22;5908;51.354;7.458;2023-10-13T15:52:41;22.80;89.40
11704;DHT22;5908;51.354;7.458;2023-10-13T15:55:11;22.80;89.60
11704;DHT22;5908;51.354;7.458;2023-10-13T15:57:39;22.80;89.60
11704;DHT22;5908;51.354;7.458;2023-10-13T16:00:07;22.70;90.20
11704;DHT22;5908;51.354;7.458;2023-10-13T16:02:49;22.60;90.10
11704;DHT22;5908;51.354;7.458;2023-10-13T16:05:16;22.60;90.30
11704;DHT22;5908;51.354;7.458;2023-10-13T16:07:42;22.50;90.10
11704;DHT22;5908;51.354;7.458;2023-10-13T16:10:09;22.50;90.40
11704;DHT22;5908;51.354;7.458;2023-10-13T16:12:37;22.40;90.70
11704;DHT22;5908;51.354;7.458;2023-10-13T16:15:03;22.40;90.50
11704;DHT22;5908;51.354;7.458;2023-10-13T16:17:34;22.30;90.60
11704;DHT22;5908;51.354;7.458;2023-10-13T16:20:05;22.30;90.60
11704;DHT22;5908;51.354;7.458;2023-10-13T16:22:37;22.30;90.70
11704;DHT22;5908;51.354;7.458;2023-10-13T16:25:04;22.30;91.10
11704;DHT22;5908;51.354;7.458;2023-10-13T16:27:36;22.20;90.60
11704;DHT22;5908;51.354;7.458;2023-10-13T16:30:06;22.20;90.70
11704;DHT22;5908;51.354;7.458;2023-10-13T16:32:35;22.20;90.80